sensor_id;sensor_type;location;lat;lon;timestamp;pressure;altitude;pressure_sealevel;temperature;humidity
71165;BME280;58859;55.132;-1.586;2023-08-21T00:00:05;101493.81;;;23.24;100.00
71165;BME280;58859;55.132;-1.586;2023-08-21T00:02:31;101499.28;;;23.42;100.00
71165;BME280;58859;55.132;-1.586;2023-08-21T00:04:56;101507.88;;;23.31;100.00
71165;BME280;58859;55.132;-1.586;2023-08-21T00:07:22;101502.50;;;23.82;100.00
71165;BME280;58859;55.132;-1.586;2023-08-21T00:09:48;101503.44;;;23.70;100.00
71165;BME280;58859;55.132;-1.586;2023-08-21T00:12:13;101499.72;;;24.02;100.00
71165;BME280;58859;55.132;-1.586;2023-08-21T00:14:39;101508.13;;;23.23;100.00
71165;BME280;58859;55.132;-1.586;2023-08-21T00:17:04;101502.78;;;23.74;100.00
71165;BME280;58859;55.132;-1.586;2023-08-21T00:19:30;101507.00;;;22.93;100.00
71165;BME280;58859;55.132;-1.586;2023-08-21T00:21:55;101499.91;;;23.25;100.00
71165;BME280;58859;55.132;-1.586;2023-08-21T00:24:21;101502.09;;;22.90;100.00
71165;BME280;58859;55.132;-1.586;2023-08-21T00:26:46;101503.31;;;22.94;100.00
71165;BME280;58859;55.132;-1.586;2023-08-21T00:29:12;101509.94;;;23.29;100.00
71165;BME280;58859;55.132;-1.586;2023-08-21T00:31:37;101502.56;;;22.48;100.00
71165;BME280;58859;55.132;-1.586;2023-08-21T00:34:03;101502.31;;;21.97;100.00
71165;BME280;58859;55.132;-1.586;2023-08-21T00:36:28;101501.88;;;21.80;100.00
71165;BME280;58859;55.132;-1.586;2023-08-21T00:38:54;101495.31;;;21.09;100.00
71165;BME280;58859;55.132;-1.586;2023-08-21T00:41:19;101489.84;;;21.77;100.00
71165;BME280;58859;55.132;-1.586;2023-08-21T00:43:45;101486.81;;;22.59;100.00
71165;BME280;58859;55.132;-1.586;2023-08-21T00:46:10;101492.38;;;22.45;100.00
71165;BME280;58859;55.132;-1.586;2023-08-21T00:48:36;101489.72;;;20.97;100.00
71165;BME280;58859;55.132;-1.586;2023-08-21T00:51:03;101492.56;;;21.91;100.00
71165;BME280;58859;55.132;-1.586;2023-08-21T00:53:28;101492.44;;;23.15;100.00
71165;BME280;58859;55.132;-1.586;2023-08-21T00:55:54;101484.75;;;23.45;100.00
71165;BME280;58859;55.132;-1.586;2023-08-21T00:58:19;101477.53;;;23.08;100.00
71165;BME280;58859;55.132;-1.586;2023-08-21T01:00:46;101489.59;;;23.55;100.00
71165;BME280;58859;55.132;-1.586;2023-08-21T01:03:13;101473.84;;;23.60;100.00
71165;BME280;58859;55.132;-1.586;2023-08-21T01:05:39;101484.56;;;23.40;100.00
71165;BME280;58859;55.132;-1.586;2023-08-21T01:08:14;101491.28;;;22.85;100.00
71165;BME280;58859;55.132;-1.586;2023-08-21T01:10:50;101492.16;;;22.53;100.00
71165;BME280;58859;55.132;-1.586;2023-08-21T01:15:51;101485.47;;;19.71;100.00
71165;BME280;58859;55.132;-1.586;2023-08-21T01:18:18;101493.13;;;20.85;100.00
71165;BME280;58859;55.132;-1.586;2023-08-21T01:20:45;101487.88;;;20.08;100.00
71165;BME280;58859;55.132;-1.586;2023-08-21T01:23:29;101491.97;;;19.89;100.00
71165;BME280;58859;55.132;-1.586;2023-08-21T01:25:55;101491.94;;;19.68;100.00
71165;BME280;58859;55.132;-1.586;2023-08-21T01:28:20;101481.63;;;19.73;100.00
71165;BME280;58859;55.132;-1.586;2023-08-21T01:30:46;101483.50;;;20.71;100.00
71165;BME280;58859;55.132;-1.586;2023-08-21T01:33:16;101479.63;;;19.54;100.00
71165;BME280;58859;55.132;-1.586;2023-08-21T01:35:42;101476.06;;;20.87;100.00
71165;BME280;58859;55.132;-1.586;2023-08-21T01:38:08;101475.63;;;21.92;100.00
71165;BME280;58859;55.132;-1.586;2023-08-21T01:40:33;101481.72;;;22.71;100.00
71165;BME280;58859;55.132;-1.586;2023-08-21T01:42:59;101469.97;;;21.28;100.00
71165;BME280;58859;55.132;-1.586;2023-08-21T01:45:24;101480.72;;;22.00;100.00
71165;BME280;58859;55.132;-1.586;2023-08-21T01:47:50;101480.84;;;22.97;100.00
71165;BME280;58859;55.132;-1.586;2023-08-21T01:50:16;101489.25;;;21.75;100.00
71165;BME280;58859;55.132;-1.586;2023-08-21T01:52:41;101497.06;;;22.36;100.00
71165;BME280;58859;55.132;-1.586;2023-08-21T01:55:07;101491.53;;;21.25;100.00
71165;BME280;58859;55.132;-1.586;2023-08-21T01:57:33;101484.22;;;21.94;100.00
71165;BME280;58859;55.132;-1.586;2023-08-21T01:59:58;101496.63;;;22.00;100.00
71165;BME280;58859;55.132;-1.586;2023-08-21T02:02:24;101495.44;;;22.15;100.00
71165;BME280;58859;55.132;-1.586;2023-08-21T02:04:49;101492.97;;;22.14;100.00
71165;BME280;58859;55.132;-1.586;2023-08-21T02:07:15;101495.41;;;22.35;100.00
71165;BME280;58859;55.132;-1.586;2023-08-21T02:09:40;101498.47;;;22.12;100.00
71165;BME280;58859;55.132;-1.586;2023-08-21T02:12:06;101497.47;;;21.94;100.00
71165;BME280;58859;55.132;-1.586;2023-08-21T02:14:31;101505.72;;;21.10;100.00
71165;BME280;58859;55.132;-1.586;2023-08-21T02:16:57;101497.72;;;21.51;100.00
71165;BME280;58859;55.132;-1.586;2023-08-21T02:19:22;101499.09;;;22.21;100.00
71165;BME280;58859;55.132;-1.586;2023-08-21T02:21:47;101500.16;;;21.46;100.00
71165;BME280;58859;55.132;-1.586;2023-08-21T02:24:13;101499.13;;;21.06;100.00
71165;BME280;58859;55.132;-1.586;2023-08-21T02:26:38;101498.72;;;21.44;100.00
71165;BME280;58859;55.132;-1.586;2023-08-21T02:29:04;101502.25;;;21.64;100.00
71165;BME280;58859;55.132;-1.586;2023-08-21T02:31:29;101500.38;;;21.45;100.00
71165;BME280;58859;55.132;-1.586;2023-08-21T02:33:55;101512.84;;;21.77;100.00
71165;BME280;58859;55.132;-1.586;2023-08-21T02:36:20;101511.84;;;20.55;100.00
71165;BME280;58859;55.132;-1.586;2023-08-21T02:38:45;101515.38;;;20.97;100.00
71165;BME280;58859;55.132;-1.586;2023-08-21T02:41:11;101509.41;;;21.83;100.00
71165;BME280;58859;55.132;-1.586;2023-08-21T02:43:36;101505.63;;;22.25;100.00
71165;BME280;58859;55.132;-1.586;2023-08-21T02:46:02;101508.84;;;22.79;100.00
71165;BME280;58859;55.132;-1.586;2023-08-21T02:48:27;101511.75;;;23.29;100.00
71165;BME280;58859;55.132;-1.586;2023-08-21T02:50:53;101508.19;;;22.97;100.00
71165;BME280;58859;55.132;-1.586;2023-08-21T02:53:18;101506.63;;;22.17;100.00
71165;BME280;58859;55.132;-1.586;2023-08-21T02:55:43;101507.22;;;22.46;100.00
71165;BME280;58859;55.132;-1.586;2023-08-21T02:58:09;101507.03;;;22.60;100.00
71165;BME280;58859;55.132;-1.586;2023-08-21T03:00:35;101507.19;;;22.92;100.00
71165;BME280;58859;55.132;-1.586;2023-08-21T03:03:01;101510.72;;;22.33;100.00
71165;BME280;58859;55.132;-1.586;2023-08-21T03:07:52;101507.25;;;22.32;100.00
71165;BME280;58859;55.132;-1.586;2023-08-21T03:10:17;101499.72;;;22.36;100.00
71165;BME280;58859;55.132;-1.586;2023-08-21T03:12:43;101497.44;;;22.53;100.00
71165;BME280;58859;55.132;-1.586;2023-08-21T03:15:09;101498.66;;;22.63;100.00
71165;BME280;58859;55.132;-1.586;2023-08-21T03:17:34;101503.53;;;22.60;100.00
71165;BME280;58859;55.132;-1.586;2023-08-21T03:20:00;101492.56;;;22.30;100.00
71165;BME280;58859;55.132;-1.586;2023-08-21T03:22:25;101500.50;;;22.17;100.00
71165;BME280;58859;55.132;-1.586;2023-08-21T03:24:51;101494.53;;;21.75;100.00
71165;BME280;58859;55.132;-1.586;2023-08-21T03:27:16;101502.06;;;21.78;100.00
71165;BME280;58859;55.132;-1.586;2023-08-21T03:29:42;101493.03;;;21.47;100.00
71165;BME280;58859;55.132;-1.586;2023-08-21T03:32:14;101490.91;;;22.42;100.00
71165;BME280;58859;55.132;-1.586;2023-08-21T03:34:40;101488.66;;;22.78;100.00
71165;BME280;58859;55.132;-1.586;2023-08-21T03:37:06;101488.50;;;23.24;100.00
71165;BME280;58859;55.132;-1.586;2023-08-21T03:39:31;101488.50;;;22.08;100.00
71165;BME280;58859;55.132;-1.586;2023-08-21T03:41:56;101482.91;;;21.57;100.00
71165;BME280;58859;55.132;-1.586;2023-08-21T03:44:22;101478.91;;;22.07;100.00
71165;BME280;58859;55.132;-1.586;2023-08-21T03:46:47;101476.88;;;22.42;100.00
71165;BME280;58859;55.132;-1.586;2023-08-21T03:49:13;101475.22;;;21.88;100.00
71165;BME280;58859;55.132;-1.586;2023-08-21T03:51:38;101466.25;;;21.89;100.00
71165;BME280;58859;55.132;-1.586;2023-08-21T03:54:03;101483.13;;;21.75;100.00
71165;BME280;58859;55.132;-1.586;2023-08-21T03:56:29;101476.81;;;21.76;100.00
71165;BME280;58859;55.132;-1.586;2023-08-21T03:58:54;101468.78;;;21.43;100.00
71165;BME280;58859;55.132;-1.586;2023-08-21T04:01:21;101477.31;;;20.98;100.00
71165;BME280;58859;55.132;-1.586;2023-08-21T04:03:46;101472.28;;;19.92;100.00
71165;BME280;58859;55.132;-1.586;2023-08-21T04:06:12;101466.31;;;20.53;100.00
71165;BME280;58859;55.132;-1.586;2023-08-21T04:08:37;101469.56;;;20.55;100.00
71165;BME280;58859;55.132;-1.586;2023-08-21T04:11:02;101466.59;;;20.37;100.00
71165;BME280;58859;55.132;-1.586;2023-08-21T04:13:28;101477.44;;;20.00;100.00
71165;BME280;58859;55.132;-1.586;2023-08-21T04:15:54;101477.13;;;21.34;100.00
71165;BME280;58859;55.132;-1.586;2023-08-21T04:18:20;101481.56;;;20.86;100.00
71165;BME280;58859;55.132;-1.586;2023-08-21T04:20:49;101485.47;;;20.13;100.00
71165;BME280;58859;55.132;-1.586;2023-08-21T04:23:15;101475.75;;;20.69;100.00
71165;BME280;58859;55.132;-1.586;2023-08-21T04:25:40;101476.78;;;21.56;100.00
71165;BME280;58859;55.132;-1.586;2023-08-21T04:28:05;101485.41;;;21.91;100.00
71165;BME280;58859;55.132;-1.586;2023-08-21T04:30:33;101488.47;;;21.21;100.00
71165;BME280;58859;55.132;-1.586;2023-08-21T04:33:00;101476.66;;;18.55;100.00
71165;BME280;58859;55.132;-1.586;2023-08-21T04:35:25;101472.00;;;18.05;100.00
71165;BME280;58859;55.132;-1.586;2023-08-21T04:37:50;101468.81;;;19.34;100.00
71165;BME280;58859;55.132;-1.586;2023-08-21T04:40:16;101467.63;;;19.94;100.00
71165;BME280;58859;55.132;-1.586;2023-08-21T04:42:43;101469.25;;;20.37;100.00
71165;BME280;58859;55.132;-1.586;2023-08-21T04:45:09;101457.41;;;21.49;100.00
71165;BME280;58859;55.132;-1.586;2023-08-21T04:47:35;101467.34;;;20.10;100.00
71165;BME280;58859;55.132;-1.586;2023-08-21T04:50:00;101479.63;;;20.73;100.00
71165;BME280;58859;55.132;-1.586;2023-08-21T04:52:26;101474.75;;;20.42;100.00
71165;BME280;58859;55.132;-1.586;2023-08-21T04:54:51;101481.13;;;21.16;100.00
71165;BME280;58859;55.132;-1.586;2023-08-21T04:57:17;101478.75;;;21.41;100.00
71165;BME280;58859;55.132;-1.586;2023-08-21T04:59:46;101477.69;;;20.26;100.00
71165;BME280;58859;55.132;-1.586;2023-08-21T05:02:11;101476.72;;;20.13;100.00
71165;BME280;58859;55.132;-1.586;2023-08-21T05:04:37;101472.88;;;20.64;100.00
71165;BME280;58859;55.132;-1.586;2023-08-21T05:07:03;101487.59;;;18.29;100.00
71165;BME280;58859;55.132;-1.586;2023-08-21T05:09:29;101482.91;;;19.77;100.00
71165;BME280;58859;55.132;-1.586;2023-08-21T05:11:55;101487.75;;;18.50;100.00
71165;BME280;58859;55.132;-1.586;2023-08-21T05:14:21;101488.78;;;18.04;100.00
71165;BME280;58859;55.132;-1.586;2023-08-21T05:16:48;101480.53;;;18.81;100.00
71165;BME280;58859;55.132;-1.586;2023-08-21T05:19:14;101479.84;;;18.65;100.00
71165;BME280;58859;55.132;-1.586;2023-08-21T05:21:39;101476.97;;;18.37;100.00
71165;BME280;58859;55.132;-1.586;2023-08-21T05:24:05;101473.69;;;20.16;100.00
71165;BME280;58859;55.132;-1.586;2023-08-21T05:26:30;101475.75;;;20.69;100.00
71165;BME280;58859;55.132;-1.586;2023-08-21T05:28:56;101472.50;;;20.39;100.00
71165;BME280;58859;55.132;-1.586;2023-08-21T05:31:22;101470.56;;;22.29;100.00
71165;BME280;58859;55.132;-1.586;2023-08-21T05:33:47;101471.66;;;21.01;100.00
71165;BME280;58859;55.132;-1.586;2023-08-21T05:36:12;101473.19;;;22.03;100.00
71165;BME280;58859;55.132;-1.586;2023-08-21T05:38:38;101478.69;;;21.95;100.00
71165;BME280;58859;55.132;-1.586;2023-08-21T05:41:03;101487.06;;;21.92;100.00
71165;BME280;58859;55.132;-1.586;2023-08-21T05:43:29;101488.34;;;21.42;100.00
71165;BME280;58859;55.132;-1.586;2023-08-21T05:45:55;101484.13;;;21.74;100.00
71165;BME280;58859;55.132;-1.586;2023-08-21T05:48:21;101484.31;;;21.59;100.00
71165;BME280;58859;55.132;-1.586;2023-08-21T05:50:50;101480.53;;;22.67;100.00
71165;BME280;58859;55.132;-1.586;2023-08-21T05:53:16;101484.22;;;20.92;100.00
71165;BME280;58859;55.132;-1.586;2023-08-21T05:55:41;101489.84;;;21.10;100.00
71165;BME280;58859;55.132;-1.586;2023-08-21T05:58:07;101488.03;;;20.49;100.00
71165;BME280;58859;55.132;-1.586;2023-08-21T06:00:33;101490.38;;;21.06;100.00
71165;BME280;58859;55.132;-1.586;2023-08-21T06:02:58;101492.00;;;20.66;100.00
71165;BME280;58859;55.132;-1.586;2023-08-21T06:05:24;101489.56;;;20.37;100.00
71165;BME280;58859;55.132;-1.586;2023-08-21T06:07:49;101491.53;;;19.50;100.00
71165;BME280;58859;55.132;-1.586;2023-08-21T06:10:14;101489.41;;;20.24;100.00
71165;BME280;58859;55.132;-1.586;2023-08-21T06:12:41;101492.13;;;20.86;100.00
71165;BME280;58859;55.132;-1.586;2023-08-21T06:15:07;101490.31;;;20.93;100.00
71165;BME280;58859;55.132;-1.586;2023-08-21T06:17:37;101490.63;;;20.42;100.00
71165;BME280;58859;55.132;-1.586;2023-08-21T06:20:04;101485.78;;;19.82;100.00
71165;BME280;58859;55.132;-1.586;2023-08-21T06:22:35;101481.59;;;20.09;100.00
71165;BME280;58859;55.132;-1.586;2023-08-21T06:25:01;101498.09;;;21.01;100.00
71165;BME280;58859;55.132;-1.586;2023-08-21T06:27:26;101490.28;;;21.14;100.00
71165;BME280;58859;55.132;-1.586;2023-08-21T06:29:52;101484.97;;;21.14;100.00
71165;BME280;58859;55.132;-1.586;2023-08-21T06:32:17;101484.63;;;22.04;100.00
71165;BME280;58859;55.132;-1.586;2023-08-21T06:34:43;101481.56;;;22.07;100.00
71165;BME280;58859;55.132;-1.586;2023-08-21T06:37:08;101483.59;;;22.38;100.00
71165;BME280;58859;55.132;-1.586;2023-08-21T06:39:34;101484.06;;;23.12;100.00
71165;BME280;58859;55.132;-1.586;2023-08-21T06:42:00;101487.25;;;22.76;100.00
71165;BME280;58859;55.132;-1.586;2023-08-21T06:44:25;101477.84;;;22.54;100.00
71165;BME280;58859;55.132;-1.586;2023-08-21T06:46:51;101479.31;;;22.43;100.00
71165;BME280;58859;55.132;-1.586;2023-08-21T06:49:16;101480.31;;;23.70;100.00
71165;BME280;58859;55.132;-1.586;2023-08-21T06:51:42;101470.22;;;23.48;100.00
71165;BME280;58859;55.132;-1.586;2023-08-21T06:54:07;101460.25;;;23.74;100.00
71165;BME280;58859;55.132;-1.586;2023-08-21T06:56:32;101479.66;;;23.37;100.00
71165;BME280;58859;55.132;-1.586;2023-08-21T06:58:58;101486.06;;;23.16;100.00
71165;BME280;58859;55.132;-1.586;2023-08-21T07:01:23;101477.72;;;23.64;100.00
71165;BME280;58859;55.132;-1.586;2023-08-21T07:03:49;101480.91;;;23.34;100.00
71165;BME280;58859;55.132;-1.586;2023-08-21T07:06:14;101491.75;;;22.36;100.00
71165;BME280;58859;55.132;-1.586;2023-08-21T07:08:39;101489.88;;;22.63;100.00
71165;BME280;58859;55.132;-1.586;2023-08-21T07:11:06;101486.97;;;23.04;100.00
71165;BME280;58859;55.132;-1.586;2023-08-21T07:13:34;101482.38;;;22.01;100.00
71165;BME280;58859;55.132;-1.586;2023-08-21T07:15:59;101481.31;;;22.80;100.00
71165;BME280;58859;55.132;-1.586;2023-08-21T07:18:28;101473.72;;;22.90;100.00
71165;BME280;58859;55.132;-1.586;2023-08-21T07:20:53;101478.41;;;22.95;100.00
71165;BME280;58859;55.132;-1.586;2023-08-21T07:23:19;101472.31;;;23.39;100.00
71165;BME280;58859;55.132;-1.586;2023-08-21T07:25:44;101482.75;;;23.72;100.00
71165;BME280;58859;55.132;-1.586;2023-08-21T07:28:10;101486.63;;;22.80;100.00
71165;BME280;58859;55.132;-1.586;2023-08-21T07:30:38;101491.50;;;22.83;100.00
71165;BME280;58859;55.132;-1.586;2023-08-21T07:33:05;101477.56;;;24.15;100.00
71165;BME280;58859;55.132;-1.586;2023-08-21T07:35:32;101481.41;;;23.87;100.00
71165;BME280;58859;55.132;-1.586;2023-08-21T07:37:57;101485.84;;;23.69;100.00
71165;BME280;58859;55.132;-1.586;2023-08-21T07:40:23;101489.34;;;23.63;100.00
71165;BME280;58859;55.132;-1.586;2023-08-21T07:42:48;101484.91;;;24.62;100.00
71165;BME280;58859;55.132;-1.586;2023-08-21T07:45:14;101492.53;;;24.09;100.00
71165;BME280;58859;55.132;-1.586;2023-08-21T07:47:39;101474.22;;;24.44;100.00
71165;BME280;58859;55.132;-1.586;2023-08-21T07:50:08;101487.06;;;24.29;100.00
71165;BME280;58859;55.132;-1.586;2023-08-21T07:52:35;101478.91;;;24.24;100.00
71165;BME280;58859;55.132;-1.586;2023-08-21T07:55:01;101479.34;;;23.14;100.00
71165;BME280;58859;55.132;-1.586;2023-08-21T07:57:30;101475.50;;;24.17;100.00
71165;BME280;58859;55.132;-1.586;2023-08-21T07:59:55;101481.31;;;23.38;100.00
71165;BME280;58859;55.132;-1.586;2023-08-21T08:02:21;101474.16;;;24.50;100.00
71165;BME280;58859;55.132;-1.586;2023-08-21T08:04:46;101465.09;;;25.31;100.00
71165;BME280;58859;55.132;-1.586;2023-08-21T08:07:12;101468.19;;;24.73;100.00
71165;BME280;58859;55.132;-1.586;2023-08-21T08:09:38;101466.03;;;25.66;100.00
71165;BME280;58859;55.132;-1.586;2023-08-21T08:12:04;101475.66;;;26.43;100.00
71165;BME280;58859;55.132;-1.586;2023-08-21T08:14:30;101485.69;;;25.35;100.00
71165;BME280;58859;55.132;-1.586;2023-08-21T08:16:56;101472.28;;;26.13;100.00
71165;BME280;58859;55.132;-1.586;2023-08-21T08:19:21;101472.66;;;26.28;100.00
71165;BME280;58859;55.132;-1.586;2023-08-21T08:21:47;101469.88;;;26.35;100.00
71165;BME280;58859;55.132;-1.586;2023-08-21T08:24:12;101473.44;;;26.52;100.00
71165;BME280;58859;55.132;-1.586;2023-08-21T08:26:38;101469.22;;;25.86;100.00
71165;BME280;58859;55.132;-1.586;2023-08-21T08:29:03;101471.47;;;26.82;100.00
71165;BME280;58859;55.132;-1.586;2023-08-21T08:31:30;101476.09;;;26.75;100.00
71165;BME280;58859;55.132;-1.586;2023-08-21T08:33:56;101473.84;;;27.07;100.00
71165;BME280;58859;55.132;-1.586;2023-08-21T08:36:21;101473.91;;;26.60;100.00
71165;BME280;58859;55.132;-1.586;2023-08-21T08:38:47;101430.97;;;27.13;100.00
71165;BME280;58859;55.132;-1.586;2023-08-21T08:44:07;101462.06;;;27.19;100.00
71165;BME280;58859;55.132;-1.586;2023-08-21T08:46:33;101465.38;;;27.83;100.00
71165;BME280;58859;55.132;-1.586;2023-08-21T08:49:00;101460.97;;;27.04;100.00
71165;BME280;58859;55.132;-1.586;2023-08-21T08:51:28;101460.41;;;27.42;100.00
71165;BME280;58859;55.132;-1.586;2023-08-21T08:53:56;101470.03;;;27.59;100.00
71165;BME280;58859;55.132;-1.586;2023-08-21T08:56:23;101466.44;;;27.82;100.00
71165;BME280;58859;55.132;-1.586;2023-08-21T08:58:48;101474.53;;;26.27;100.00
71165;BME280;58859;55.132;-1.586;2023-08-21T09:01:14;101476.25;;;27.48;100.00
71165;BME280;58859;55.132;-1.586;2023-08-21T09:03:40;101472.19;;;27.17;100.00
71165;BME280;58859;55.132;-1.586;2023-08-21T09:06:05;101472.31;;;27.67;100.00
71165;BME280;58859;55.132;-1.586;2023-08-21T09:08:31;101473.19;;;27.56;100.00
71165;BME280;58859;55.132;-1.586;2023-08-21T09:11:01;101472.53;;;28.11;100.00
71165;BME280;58859;55.132;-1.586;2023-08-21T09:13:27;101459.91;;;28.06;100.00
71165;BME280;58859;55.132;-1.586;2023-08-21T09:15:54;101461.34;;;28.14;100.00
71165;BME280;58859;55.132;-1.586;2023-08-21T09:18:20;101447.78;;;27.70;100.00
71165;BME280;58859;55.132;-1.586;2023-08-21T09:20:50;101455.59;;;28.22;100.00
71165;BME280;58859;55.132;-1.586;2023-08-21T09:23:17;101450.09;;;28.12;100.00
71165;BME280;58859;55.132;-1.586;2023-08-21T09:25:48;101426.00;;;27.95;100.00
71165;BME280;58859;55.132;-1.586;2023-08-21T09:28:15;101444.66;;;28.23;100.00
71165;BME280;58859;55.132;-1.586;2023-08-21T09:30:48;101444.81;;;27.83;100.00
71165;BME280;58859;55.132;-1.586;2023-08-21T09:33:17;101422.53;;;27.78;100.00
71165;BME280;58859;55.132;-1.586;2023-08-21T09:35:43;101436.78;;;27.67;100.00
71165;BME280;58859;55.132;-1.586;2023-08-21T09:38:09;101440.75;;;28.14;100.00
71165;BME280;58859;55.132;-1.586;2023-08-21T09:40:39;101460.03;;;27.66;100.00
71165;BME280;58859;55.132;-1.586;2023-08-21T09:43:05;101444.28;;;27.25;100.00
71165;BME280;58859;55.132;-1.586;2023-08-21T09:45:33;101447.16;;;27.80;100.00
71165;BME280;58859;55.132;-1.586;2023-08-21T09:47:58;101443.84;;;27.89;100.00
71165;BME280;58859;55.132;-1.586;2023-08-21T09:50:24;101430.59;;;28.33;100.00
71165;BME280;58859;55.132;-1.586;2023-08-21T09:52:51;101437.56;;;28.72;100.00
71165;BME280;58859;55.132;-1.586;2023-08-21T09:55:17;101444.53;;;28.95;100.00
71165;BME280;58859;55.132;-1.586;2023-08-21T09:57:43;101440.91;;;28.63;100.00
71165;BME280;58859;55.132;-1.586;2023-08-21T10:00:10;101439.94;;;28.69;100.00
71165;BME280;58859;55.132;-1.586;2023-08-21T10:02:50;101446.16;;;28.96;100.00
71165;BME280;58859;55.132;-1.586;2023-08-21T10:05:19;101415.59;;;28.70;100.00
71165;BME280;58859;55.132;-1.586;2023-08-21T10:07:49;101433.22;;;28.49;100.00
71165;BME280;58859;55.132;-1.586;2023-08-21T10:10:15;101439.63;;;28.65;100.00
71165;BME280;58859;55.132;-1.586;2023-08-21T10:12:41;101445.38;;;28.19;100.00
71165;BME280;58859;55.132;-1.586;2023-08-21T10:15:07;101415.13;;;27.85;100.00
71165;BME280;58859;55.132;-1.586;2023-08-21T10:17:37;101431.56;;;28.43;100.00
71165;BME280;58859;55.132;-1.586;2023-08-21T10:20:06;101442.69;;;28.74;100.00
71165;BME280;58859;55.132;-1.586;2023-08-21T10:23:01;101442.66;;;28.52;100.00
71165;BME280;58859;55.132;-1.586;2023-08-21T10:25:27;101433.34;;;28.76;100.00
71165;BME280;58859;55.132;-1.586;2023-08-21T10:27:56;101416.28;;;28.82;100.00
71165;BME280;58859;55.132;-1.586;2023-08-21T10:30:23;101432.72;;;29.39;100.00
71165;BME280;58859;55.132;-1.586;2023-08-21T10:32:51;101399.69;;;28.85;100.00
71165;BME280;58859;55.132;-1.586;2023-08-21T10:35:29;101426.47;;;29.29;100.00
71165;BME280;58859;55.132;-1.586;2023-08-21T10:40:32;101419.88;;;28.71;100.00
71165;BME280;58859;55.132;-1.586;2023-08-21T10:42:58;101411.78;;;29.36;100.00
71165;BME280;58859;55.132;-1.586;2023-08-21T10:45:24;101400.66;;;29.01;100.00
71165;BME280;58859;55.132;-1.586;2023-08-21T10:47:49;101402.63;;;29.32;100.00
71165;BME280;58859;55.132;-1.586;2023-08-21T10:50:16;101398.47;;;29.20;100.00
71165;BME280;58859;55.132;-1.586;2023-08-21T10:52:43;101399.56;;;29.50;100.00
71165;BME280;58859;55.132;-1.586;2023-08-21T10:55:14;101396.72;;;29.30;100.00
71165;BME280;58859;55.132;-1.586;2023-08-21T10:57:41;101390.84;;;29.33;100.00
71165;BME280;58859;55.132;-1.586;2023-08-21T11:00:11;101396.31;;;29.22;100.00
71165;BME280;58859;55.132;-1.586;2023-08-21T11:02:47;101396.34;;;29.48;100.00
71165;BME280;58859;55.132;-1.586;2023-08-21T11:05:13;101391.22;;;28.93;100.00
71165;BME280;58859;55.132;-1.586;2023-08-21T11:10:06;101379.25;;;29.28;100.00
71165;BME280;58859;55.132;-1.586;2023-08-21T11:12:33;101386.16;;;28.97;100.00
71165;BME280;58859;55.132;-1.586;2023-08-21T11:14:59;101370.31;;;29.17;100.00
71165;BME280;58859;55.132;-1.586;2023-08-21T11:17:25;101398.78;;;29.55;100.00
71165;BME280;58859;55.132;-1.586;2023-08-21T11:19:50;101376.78;;;29.53;100.00
71165;BME280;58859;55.132;-1.586;2023-08-21T11:22:17;101378.28;;;28.85;100.00
71165;BME280;58859;55.132;-1.586;2023-08-21T11:24:44;101386.38;;;28.69;100.00
71165;BME280;58859;55.132;-1.586;2023-08-21T11:27:12;101393.44;;;29.23;100.00
71165;BME280;58859;55.132;-1.586;2023-08-21T11:29:44;101346.47;;;29.21;100.00
71165;BME280;58859;55.132;-1.586;2023-08-21T11:32:18;101374.50;;;29.08;100.00
71165;BME280;58859;55.132;-1.586;2023-08-21T11:34:52;101381.94;;;29.91;100.00
71165;BME280;58859;55.132;-1.586;2023-08-21T11:37:25;101366.19;;;28.39;100.00
71165;BME280;58859;55.132;-1.586;2023-08-21T11:39:56;101369.22;;;29.18;100.00
71165;BME280;58859;55.132;-1.586;2023-08-21T11:42:28;101367.88;;;29.79;100.00
71165;BME280;58859;55.132;-1.586;2023-08-21T11:44:54;101366.75;;;29.70;100.00
71165;BME280;58859;55.132;-1.586;2023-08-21T11:47:21;101381.09;;;29.54;100.00
71165;BME280;58859;55.132;-1.586;2023-08-21T11:49:47;101378.09;;;28.92;100.00
71165;BME280;58859;55.132;-1.586;2023-08-21T11:52:18;101380.53;;;29.84;100.00
71165;BME280;58859;55.132;-1.586;2023-08-21T11:54:50;101371.25;;;28.79;100.00
71165;BME280;58859;55.132;-1.586;2023-08-21T11:57:17;101377.97;;;28.82;100.00
71165;BME280;58859;55.132;-1.586;2023-08-21T11:59:43;101360.06;;;29.78;100.00
71165;BME280;58859;55.132;-1.586;2023-08-21T12:02:18;101384.00;;;28.72;100.00
71165;BME280;58859;55.132;-1.586;2023-08-21T12:04:44;101362.50;;;29.42;100.00
71165;BME280;58859;55.132;-1.586;2023-08-21T12:07:10;101372.00;;;29.92;100.00
71165;BME280;58859;55.132;-1.586;2023-08-21T12:09:36;101364.53;;;29.99;100.00
71165;BME280;58859;55.132;-1.586;2023-08-21T12:12:01;101366.16;;;29.04;100.00
71165;BME280;58859;55.132;-1.586;2023-08-21T12:14:28;101368.72;;;28.94;100.00
71165;BME280;58859;55.132;-1.586;2023-08-21T12:16:53;101380.44;;;28.23;100.00
71165;BME280;58859;55.132;-1.586;2023-08-21T12:19:20;101358.72;;;27.36;100.00
71165;BME280;58859;55.132;-1.586;2023-08-21T12:21:47;101356.31;;;27.85;100.00
71165;BME280;58859;55.132;-1.586;2023-08-21T12:24:12;101363.75;;;27.33;100.00
71165;BME280;58859;55.132;-1.586;2023-08-21T12:26:37;101370.81;;;28.06;100.00
71165;BME280;58859;55.132;-1.586;2023-08-21T12:29:03;101377.31;;;27.43;100.00
71165;BME280;58859;55.132;-1.586;2023-08-21T12:31:28;101369.69;;;28.40;100.00
71165;BME280;58859;55.132;-1.586;2023-08-21T12:33:54;101363.91;;;28.96;100.00
71165;BME280;58859;55.132;-1.586;2023-08-21T12:36:20;101352.44;;;29.54;100.00
71165;BME280;58859;55.132;-1.586;2023-08-21T12:38:45;101365.50;;;26.19;100.00